sensor_id;sensor_type;location;lat;lon;timestamp;P1;durP1;ratioP1;P2;durP2;ratioP2
83558;SDS011;73527;47.882;7.718;2024-01-07T00:01:55;6.25;;;2.42;;
83558;SDS011;73527;47.882;7.718;2024-01-07T00:04:20;9.25;;;3.58;;
83558;SDS011;73527;47.882;7.718;2024-01-07T00:06:46;7.13;;;3.70;;
83558;SDS011;73527;47.882;7.718;2024-01-07T00:09:11;4.18;;;2.10;;
83558;SDS011;73527;47.882;7.718;2024-01-07T00:11:40;3.05;;;1.67;;
83558;SDS011;73527;47.882;7.718;2024-01-07T00:14:05;4.00;;;1.75;;
83558;SDS011;73527;47.882;7.718;2024-01-07T00:16:31;2.60;;;1.70;;
83558;SDS011;73527;47.882;7.718;2024-01-07T00:18:56;7.05;;;3.15;;
83558;SDS011;73527;47.882;7.718;2024-01-07T00:21:22;3.28;;;1.70;;
83558;SDS011;73527;47.882;7.718;2024-01-07T00:23:47;3.10;;;1.55;;
83558;SDS011;73527;47.882;7.718;2024-01-07T00:26:12;3.03;;;1.80;;
83558;SDS011;73527;47.882;7.718;2024-01-07T00:28:38;2.38;;;1.25;;
83558;SDS011;73527;47.882;7.718;2024-01-07T00:31:03;2.00;;;0.90;;
83558;SDS011;73527;47.882;7.718;2024-01-07T00:33:30;3.55;;;1.60;;
83558;SDS011;73527;47.882;7.718;2024-01-07T00:35:56;3.50;;;1.80;;
83558;SDS011;73527;47.882;7.718;2024-01-07T00:38:21;1.23;;;0.73;;
83558;SDS011;73527;47.882;7.718;2024-01-07T00:40:47;1.70;;;1.05;;
83558;SDS011;73527;47.882;7.718;2024-01-07T00:43:12;2.67;;;1.27;;
83558;SDS011;73527;47.882;7.718;2024-01-07T00:45:37;1.30;;;0.90;;
83558;SDS011;73527;47.882;7.718;2024-01-07T00:48:03;1.20;;;0.93;;
83558;SDS011;73527;47.882;7.718;2024-01-07T00:50:28;1.55;;;1.17;;
83558;SDS011;73527;47.882;7.718;2024-01-07T00:52:53;1.52;;;0.88;;
83558;SDS011;73527;47.882;7.718;2024-01-07T00:55:19;1.75;;;1.20;;
83558;SDS011;73527;47.882;7.718;2024-01-07T00:57:44;2.22;;;0.88;;
83558;SDS011;73527;47.882;7.718;2024-01-07T01:00:10;1.00;;;0.75;;
83558;SDS011;73527;47.882;7.718;2024-01-07T01:02:36;1.85;;;1.13;;
83558;SDS011;73527;47.882;7.718;2024-01-07T01:05:02;2.75;;;1.00;;
83558;SDS011;73527;47.882;7.718;2024-01-07T01:07:28;1.50;;;0.82;;
83558;SDS011;73527;47.882;7.718;2024-01-07T01:09:53;1.08;;;0.80;;
83558;SDS011;73527;47.882;7.718;2024-01-07T01:12:18;1.63;;;0.88;;
83558;SDS011;73527;47.882;7.718;2024-01-07T01:14:44;1.73;;;1.13;;
83558;SDS011;73527;47.882;7.718;2024-01-07T01:17:09;2.00;;;0.75;;
83558;SDS011;73527;47.882;7.718;2024-01-07T01:19:34;1.13;;;0.82;;
83558;SDS011;73527;47.882;7.718;2024-01-07T01:22:00;1.58;;;0.73;;
83558;SDS011;73527;47.882;7.718;2024-01-07T01:24:25;1.40;;;1.02;;
83558;SDS011;73527;47.882;7.718;2024-01-07T01:26:50;2.13;;;1.20;;
83558;SDS011;73527;47.882;7.718;2024-01-07T01:29:15;2.92;;;1.02;;
83558;SDS011;73527;47.882;7.718;2024-01-07T01:31:41;2.33;;;1.20;;
83558;SDS011;73527;47.882;7.718;2024-01-07T01:34:06;4.75;;;1.50;;
83558;SDS011;73527;47.882;7.718;2024-01-07T01:36:31;2.97;;;1.45;;
83558;SDS011;73527;47.882;7.718;2024-01-07T01:38:57;3.45;;;1.10;;
83558;SDS011;73527;47.882;7.718;2024-01-07T01:41:22;2.30;;;1.38;;
83558;SDS011;73527;47.882;7.718;2024-01-07T01:43:47;2.00;;;1.17;;
83558;SDS011;73527;47.882;7.718;2024-01-07T01:46:13;2.03;;;1.08;;
83558;SDS011;73527;47.882;7.718;2024-01-07T01:48:39;1.90;;;1.20;;
83558;SDS011;73527;47.882;7.718;2024-01-07T01:53:30;4.93;;;3.15;;
83558;SDS011;73527;47.882;7.718;2024-01-07T01:55:57;3.53;;;2.75;;
83558;SDS011;73527;47.882;7.718;2024-01-07T01:58:25;6.45;;;3.65;;
83558;SDS011;73527;47.882;7.718;2024-01-07T02:00:50;11.73;;;6.65;;
83558;SDS011;73527;47.882;7.718;2024-01-07T02:03:16;12.82;;;7.32;;
83558;SDS011;73527;47.882;7.718;2024-01-07T02:05:42;14.50;;;7.82;;
83558;SDS011;73527;47.882;7.718;2024-01-07T02:08:07;13.82;;;7.47;;
83558;SDS011;73527;47.882;7.718;2024-01-07T02:10:34;12.75;;;7.10;;
83558;SDS011;73527;47.882;7.718;2024-01-07T02:13:01;14.38;;;8.07;;
83558;SDS011;73527;47.882;7.718;2024-01-07T02:15:28;15.00;;;8.30;;
83558;SDS011;73527;47.882;7.718;2024-01-07T02:17:53;13.93;;;7.82;;
83558;SDS011;73527;47.882;7.718;2024-01-07T02:20:18;14.82;;;8.70;;
83558;SDS011;73527;47.882;7.718;2024-01-07T02:22:44;16.08;;;8.57;;
83558;SDS011;73527;47.882;7.718;2024-01-07T02:25:09;16.27;;;9.18;;
83558;SDS011;73527;47.882;7.718;2024-01-07T02:27:35;15.55;;;8.73;;
83558;SDS011;73527;47.882;7.718;2024-01-07T02:30:00;15.85;;;9.73;;
83558;SDS011;73527;47.882;7.718;2024-01-07T02:32:25;14.15;;;8.15;;
83558;SDS011;73527;47.882;7.718;2024-01-07T02:34:51;13.43;;;8.50;;
83558;SDS011;73527;47.882;7.718;2024-01-07T02:37:17;15.27;;;8.40;;
83558;SDS011;73527;47.882;7.718;2024-01-07T02:39:42;15.25;;;9.02;;
83558;SDS011;73527;47.882;7.718;2024-01-07T02:42:09;15.90;;;9.73;;
83558;SDS011;73527;47.882;7.718;2024-01-07T02:44:35;18.52;;;10.18;;
83558;SDS011;73527;47.882;7.718;2024-01-07T02:47:00;19.98;;;10.35;;
83558;SDS011;73527;47.882;7.718;2024-01-07T02:49:25;20.10;;;10.20;;
83558;SDS011;73527;47.882;7.718;2024-01-07T02:51:51;17.65;;;10.02;;
83558;SDS011;73527;47.882;7.718;2024-01-07T02:54:16;19.58;;;10.20;;
83558;SDS011;73527;47.882;7.718;2024-01-07T02:56:41;21.40;;;9.02;;
83558;SDS011;73527;47.882;7.718;2024-01-07T02:59:07;16.83;;;9.98;;
83558;SDS011;73527;47.882;7.718;2024-01-07T03:01:32;22.52;;;11.02;;
83558;SDS011;73527;47.882;7.718;2024-01-07T03:04:05;19.17;;;9.65;;
83558;SDS011;73527;47.882;7.718;2024-01-07T03:06:30;16.88;;;9.38;;
83558;SDS011;73527;47.882;7.718;2024-01-07T03:08:55;18.58;;;10.25;;
83558;SDS011;73527;47.882;7.718;2024-01-07T03:11:21;18.15;;;9.57;;
83558;SDS011;73527;47.882;7.718;2024-01-07T03:13:46;18.05;;;9.88;;
83558;SDS011;73527;47.882;7.718;2024-01-07T03:16:18;18.02;;;9.65;;
83558;SDS011;73527;47.882;7.718;2024-01-07T03:18:47;15.90;;;9.15;;
83558;SDS011;73527;47.882;7.718;2024-01-07T03:21:19;17.35;;;7.90;;
83558;SDS011;73527;47.882;7.718;2024-01-07T03:23:46;12.93;;;7.68;;
83558;SDS011;73527;47.882;7.718;2024-01-07T03:26:12;13.25;;;7.25;;
83558;SDS011;73527;47.882;7.718;2024-01-07T03:28:37;12.73;;;7.10;;
83558;SDS011;73527;47.882;7.718;2024-01-07T03:31:10;13.85;;;7.03;;
83558;SDS011;73527;47.882;7.718;2024-01-07T03:33:37;12.88;;;7.78;;
83558;SDS011;73527;47.882;7.718;2024-01-07T03:36:07;14.00;;;7.32;;
83558;SDS011;73527;47.882;7.718;2024-01-07T03:38:33;11.60;;;6.80;;
83558;SDS011;73527;47.882;7.718;2024-01-07T03:40:59;11.02;;;6.25;;
83558;SDS011;73527;47.882;7.718;2024-01-07T03:43:24;13.07;;;6.80;;
83558;SDS011;73527;47.882;7.718;2024-01-07T03:45:49;11.80;;;6.60;;
83558;SDS011;73527;47.882;7.718;2024-01-07T03:48:15;12.43;;;7.63;;
83558;SDS011;73527;47.882;7.718;2024-01-07T03:50:41;10.48;;;6.18;;
83558;SDS011;73527;47.882;7.718;2024-01-07T03:53:06;13.13;;;7.60;;
83558;SDS011;73527;47.882;7.718;2024-01-07T03:55:31;15.98;;;7.43;;
83558;SDS011;73527;47.882;7.718;2024-01-07T03:57:56;15.25;;;7.13;;
83558;SDS011;73527;47.882;7.718;2024-01-07T04:00:22;13.70;;;7.55;;
83558;SDS011;73527;47.882;7.718;2024-01-07T04:02:47;14.15;;;7.93;;
83558;SDS011;73527;47.882;7.718;2024-01-07T04:05:12;13.82;;;6.90;;
83558;SDS011;73527;47.882;7.718;2024-01-07T04:07:40;12.45;;;6.68;;
83558;SDS011;73527;47.882;7.718;2024-01-07T04:10:05;14.13;;;7.65;;
83558;SDS011;73527;47.882;7.718;2024-01-07T04:12:31;13.30;;;7.60;;
83558;SDS011;73527;47.882;7.718;2024-01-07T04:14:56;12.90;;;7.70;;
83558;SDS011;73527;47.882;7.718;2024-01-07T04:17:21;13.07;;;7.18;;
83558;SDS011;73527;47.882;7.718;2024-01-07T04:19:48;19.63;;;8.63;;
83558;SDS011;73527;47.882;7.718;2024-01-07T04:22:13;16.85;;;8.70;;
83558;SDS011;73527;47.882;7.718;2024-01-07T04:24:40;18.05;;;8.85;;
83558;SDS011;73527;47.882;7.718;2024-01-07T04:27:06;15.65;;;9.35;;
83558;SDS011;73527;47.882;7.718;2024-01-07T04:29:32;18.48;;;9.25;;
83558;SDS011;73527;47.882;7.718;2024-01-07T04:31:57;18.73;;;9.90;;
83558;SDS011;73527;47.882;7.718;2024-01-07T04:34:22;17.77;;;10.00;;
83558;SDS011;73527;47.882;7.718;2024-01-07T04:36:47;17.83;;;9.60;;
83558;SDS011;73527;47.882;7.718;2024-01-07T04:39:13;20.15;;;10.88;;
83558;SDS011;73527;47.882;7.718;2024-01-07T04:41:38;20.65;;;10.48;;
83558;SDS011;73527;47.882;7.718;2024-01-07T04:44:03;19.80;;;10.55;;
83558;SDS011;73527;47.882;7.718;2024-01-07T04:46:29;20.27;;;11.35;;
83558;SDS011;73527;47.882;7.718;2024-01-07T04:48:54;23.23;;;10.85;;
83558;SDS011;73527;47.882;7.718;2024-01-07T04:51:19;21.02;;;11.20;;
83558;SDS011;73527;47.882;7.718;2024-01-07T04:53:45;18.75;;;9.90;;
83558;SDS011;73527;47.882;7.718;2024-01-07T04:56:10;22.33;;;11.30;;
83558;SDS011;73527;47.882;7.718;2024-01-07T04:58:36;21.10;;;10.98;;
83558;SDS011;73527;47.882;7.718;2024-01-07T05:01:01;20.95;;;10.90;;
83558;SDS011;73527;47.882;7.718;2024-01-07T05:03:30;27.20;;;12.70;;
83558;SDS011;73527;47.882;7.718;2024-01-07T05:05:55;29.52;;;11.98;;
83558;SDS011;73527;47.882;7.718;2024-01-07T05:08:20;24.63;;;11.50;;
83558;SDS011;73527;47.882;7.718;2024-01-07T05:10:46;23.77;;;11.27;;
83558;SDS011;73527;47.882;7.718;2024-01-07T05:13:11;24.05;;;11.40;;
83558;SDS011;73527;47.882;7.718;2024-01-07T05:15:37;20.13;;;11.35;;
83558;SDS011;73527;47.882;7.718;2024-01-07T05:18:02;24.30;;;11.88;;
83558;SDS011;73527;47.882;7.718;2024-01-07T05:20:27;21.15;;;10.73;;
83558;SDS011;73527;47.882;7.718;2024-01-07T05:22:53;19.98;;;10.38;;
83558;SDS011;73527;47.882;7.718;2024-01-07T05:25:18;20.48;;;10.30;;
83558;SDS011;73527;47.882;7.718;2024-01-07T05:27:43;25.35;;;11.00;;
83558;SDS011;73527;47.882;7.718;2024-01-07T05:30:09;21.85;;;10.25;;
83558;SDS011;73527;47.882;7.718;2024-01-07T05:32:34;20.20;;;9.43;;
83558;SDS011;73527;47.882;7.718;2024-01-07T05:34:59;19.33;;;9.68;;
83558;SDS011;73527;47.882;7.718;2024-01-07T05:37:25;17.23;;;8.88;;
83558;SDS011;73527;47.882;7.718;2024-01-07T05:39:50;19.48;;;9.95;;
83558;SDS011;73527;47.882;7.718;2024-01-07T05:42:15;15.93;;;9.50;;
83558;SDS011;73527;47.882;7.718;2024-01-07T05:44:41;17.77;;;9.20;;
83558;SDS011;73527;47.882;7.718;2024-01-07T05:47:07;18.52;;;9.55;;
83558;SDS011;73527;47.882;7.718;2024-01-07T05:49:32;17.85;;;10.15;;
83558;SDS011;73527;47.882;7.718;2024-01-07T05:51:58;18.48;;;9.55;;
83558;SDS011;73527;47.882;7.718;2024-01-07T05:54:23;17.92;;;9.40;;
83558;SDS011;73527;47.882;7.718;2024-01-07T05:56:48;15.60;;;8.32;;
83558;SDS011;73527;47.882;7.718;2024-01-07T05:59:14;16.65;;;8.90;;
83558;SDS011;73527;47.882;7.718;2024-01-07T06:01:39;16.35;;;9.18;;
83558;SDS011;73527;47.882;7.718;2024-01-07T06:04:04;15.85;;;8.38;;
83558;SDS011;73527;47.882;7.718;2024-01-07T06:06:30;16.50;;;9.10;;
83558;SDS011;73527;47.882;7.718;2024-01-07T06:08:55;11.63;;;6.55;;
83558;SDS011;73527;47.882;7.718;2024-01-07T06:11:20;14.82;;;8.00;;
83558;SDS011;73527;47.882;7.718;2024-01-07T06:13:46;13.93;;;7.53;;
83558;SDS011;73527;47.882;7.718;2024-01-07T06:16:12;13.32;;;8.05;;
83558;SDS011;73527;47.882;7.718;2024-01-07T06:18:37;13.45;;;7.28;;
83558;SDS011;73527;47.882;7.718;2024-01-07T06:21:03;14.02;;;8.15;;
83558;SDS011;73527;47.882;7.718;2024-01-07T06:23:28;11.90;;;6.90;;
83558;SDS011;73527;47.882;7.718;2024-01-07T06:25:53;11.80;;;6.47;;
83558;SDS011;73527;47.882;7.718;2024-01-07T06:28:19;11.93;;;7.03;;
83558;SDS011;73527;47.882;7.718;2024-01-07T06:30:45;10.73;;;5.95;;
83558;SDS011;73527;47.882;7.718;2024-01-07T06:33:10;11.18;;;6.35;;
83558;SDS011;73527;47.882;7.718;2024-01-07T06:35:35;11.90;;;6.90;;
83558;SDS011;73527;47.882;7.718;2024-01-07T06:38:01;11.43;;;6.32;;
83558;SDS011;73527;47.882;7.718;2024-01-07T06:40:26;11.00;;;5.57;;
83558;SDS011;73527;47.882;7.718;2024-01-07T06:42:51;10.57;;;5.55;;
83558;SDS011;73527;47.882;7.718;2024-01-07T06:45:17;10.30;;;5.00;;
83558;SDS011;73527;47.882;7.718;2024-01-07T06:47:42;10.02;;;5.43;;
83558;SDS011;73527;47.882;7.718;2024-01-07T06:50:08;11.20;;;5.55;;
83558;SDS011;73527;47.882;7.718;2024-01-07T06:52:35;10.32;;;6.03;;
83558;SDS011;73527;47.882;7.718;2024-01-07T06:55:00;10.68;;;6.50;;
83558;SDS011;73527;47.882;7.718;2024-01-07T06:57:26;12.38;;;6.57;;
83558;SDS011;73527;47.882;7.718;2024-01-07T06:59:51;11.10;;;5.85;;
83558;SDS011;73527;47.882;7.718;2024-01-07T07:02:17;11.10;;;6.45;;
83558;SDS011;73527;47.882;7.718;2024-01-07T07:04:42;13.50;;;6.60;;
83558;SDS011;73527;47.882;7.718;2024-01-07T07:07:07;12.23;;;6.07;;
83558;SDS011;73527;47.882;7.718;2024-01-07T07:09:33;13.32;;;6.75;;
83558;SDS011;73527;47.882;7.718;2024-01-07T07:11:59;12.38;;;6.57;;
83558;SDS011;73527;47.882;7.718;2024-01-07T07:14:25;13.55;;;6.40;;
83558;SDS011;73527;47.882;7.718;2024-01-07T07:16:50;15.63;;;7.25;;
83558;SDS011;73527;47.882;7.718;2024-01-07T07:19:15;13.00;;;6.38;;
83558;SDS011;73527;47.882;7.718;2024-01-07T07:21:41;14.05;;;7.13;;
83558;SDS011;73527;47.882;7.718;2024-01-07T07:24:08;9.93;;;6.07;;
83558;SDS011;73527;47.882;7.718;2024-01-07T07:26:33;12.07;;;6.63;;
83558;SDS011;73527;47.882;7.718;2024-01-07T07:29:00;12.30;;;5.85;;
83558;SDS011;73527;47.882;7.718;2024-01-07T07:31:27;9.05;;;5.18;;
83558;SDS011;73527;47.882;7.718;2024-01-07T07:33:52;9.80;;;5.40;;
83558;SDS011;73527;47.882;7.718;2024-01-07T07:36:17;8.73;;;5.38;;
83558;SDS011;73527;47.882;7.718;2024-01-07T07:38:43;9.15;;;4.93;;
83558;SDS011;73527;47.882;7.718;2024-01-07T07:41:08;7.55;;;4.25;;
83558;SDS011;73527;47.882;7.718;2024-01-07T07:43:33;14.00;;;6.82;;
83558;SDS011;73527;47.882;7.718;2024-01-07T07:45:59;12.25;;;5.80;;
83558;SDS011;73527;47.882;7.718;2024-01-07T07:48:26;13.50;;;6.28;;
83558;SDS011;73527;47.882;7.718;2024-01-07T07:53:18;14.13;;;6.18;;
83558;SDS011;73527;47.882;7.718;2024-01-07T07:55:43;13.02;;;6.72;;
83558;SDS011;73527;47.882;7.718;2024-01-07T07:58:09;13.63;;;6.60;;
83558;SDS011;73527;47.882;7.718;2024-01-07T08:00:34;16.48;;;7.85;;
83558;SDS011;73527;47.882;7.718;2024-01-07T08:03:00;17.63;;;8.52;;
83558;SDS011;73527;47.882;7.718;2024-01-07T08:05:25;19.40;;;8.90;;
83558;SDS011;73527;47.882;7.718;2024-01-07T08:07:50;21.25;;;9.38;;
83558;SDS011;73527;47.882;7.718;2024-01-07T08:10:16;23.27;;;11.05;;
83558;SDS011;73527;47.882;7.718;2024-01-07T08:12:41;26.30;;;10.73;;
83558;SDS011;73527;47.882;7.718;2024-01-07T08:15:06;25.23;;;11.15;;
83558;SDS011;73527;47.882;7.718;2024-01-07T08:17:32;25.75;;;10.77;;
83558;SDS011;73527;47.882;7.718;2024-01-07T08:19:58;23.92;;;10.02;;
83558;SDS011;73527;47.882;7.718;2024-01-07T08:22:23;22.98;;;9.95;;
83558;SDS011;73527;47.882;7.718;2024-01-07T08:24:48;25.08;;;10.98;;
83558;SDS011;73527;47.882;7.718;2024-01-07T08:29:42;21.85;;;9.20;;
83558;SDS011;73527;47.882;7.718;2024-01-07T08:32:09;21.75;;;9.68;;
83558;SDS011;73527;47.882;7.718;2024-01-07T08:34:34;20.92;;;9.98;;
83558;SDS011;73527;47.882;7.718;2024-01-07T08:37:00;20.40;;;9.88;;
83558;SDS011;73527;47.882;7.718;2024-01-07T08:39:25;18.92;;;8.80;;
83558;SDS011;73527;47.882;7.718;2024-01-07T08:41:51;22.67;;;9.25;;
83558;SDS011;73527;47.882;7.718;2024-01-07T08:44:16;18.20;;;8.65;;
83558;SDS011;73527;47.882;7.718;2024-01-07T08:46:42;20.77;;;9.15;;
83558;SDS011;73527;47.882;7.718;2024-01-07T08:49:07;18.98;;;9.13;;
83558;SDS011;73527;47.882;7.718;2024-01-07T08:51:32;19.83;;;8.32;;
83558;SDS011;73527;47.882;7.718;2024-01-07T08:53:58;14.20;;;8.00;;
83558;SDS011;73527;47.882;7.718;2024-01-07T08:56:24;18.42;;;8.27;;
83558;SDS011;73527;47.882;7.718;2024-01-07T08:58:50;14.52;;;7.65;;
83558;SDS011;73527;47.882;7.718;2024-01-07T09:01:17;13.55;;;7.32;;
83558;SDS011;73527;47.882;7.718;2024-01-07T09:03:42;11.70;;;6.45;;
83558;SDS011;73527;47.882;7.718;2024-01-07T09:06:08;12.48;;;7.15;;
83558;SDS011;73527;47.882;7.718;2024-01-07T09:08:33;13.45;;;7.57;;
83558;SDS011;73527;47.882;7.718;2024-01-07T09:11:00;15.75;;;7.75;;
83558;SDS011;73527;47.882;7.718;2024-01-07T09:13:26;14.95;;;7.45;;
83558;SDS011;73527;47.882;7.718;2024-01-07T09:15:52;16.17;;;8.80;;
83558;SDS011;73527;47.882;7.718;2024-01-07T09:18:17;16.98;;;8.13;;
83558;SDS011;73527;47.882;7.718;2024-01-07T09:20:43;17.42;;;7.68;;
83558;SDS011;73527;47.882;7.718;2024-01-07T09:23:09;16.60;;;8.85;;
83558;SDS011;73527;47.882;7.718;2024-01-07T09:25:34;17.00;;;8.52;;
83558;SDS011;73527;47.882;7.718;2024-01-07T09:27:59;17.58;;;8.48;;
83558;SDS011;73527;47.882;7.718;2024-01-07T09:30:25;21.27;;;10.30;;
83558;SDS011;73527;47.882;7.718;2024-01-07T09:32:51;19.20;;;9.50;;
83558;SDS011;73527;47.882;7.718;2024-01-07T09:35:16;22.73;;;10.18;;
83558;SDS011;73527;47.882;7.718;2024-01-07T09:37:42;20.42;;;9.07;;
83558;SDS011;73527;47.882;7.718;2024-01-07T09:40:07;21.95;;;10.25;;
83558;SDS011;73527;47.882;7.718;2024-01-07T09:42:33;23.55;;;11.13;;
83558;SDS011;73527;47.882;7.718;2024-01-07T09:45:00;21.92;;;10.77;;
83558;SDS011;73527;47.882;7.718;2024-01-07T09:47:28;20.80;;;10.93;;
83558;SDS011;73527;47.882;7.718;2024-01-07T09:49:54;24.70;;;11.57;;
83558;SDS011;73527;47.882;7.718;2024-01-07T09:52:20;27.65;;;12.85;;
83558;SDS011;73527;47.882;7.718;2024-01-07T09:54:45;25.42;;;11.80;;
83558;SDS011;73527;47.882;7.718;2024-01-07T09:57:16;22.55;;;11.25;;
83558;SDS011;73527;47.882;7.718;2024-01-07T09:59:41;23.80;;;11.60;;
83558;SDS011;73527;47.882;7.718;2024-01-07T10:02:06;22.45;;;11.52;;
83558;SDS011;73527;47.882;7.718;2024-01-07T10:04:32;21.08;;;11.25;;
83558;SDS011;73527;47.882;7.718;2024-01-07T10:06:58;23.92;;;12.10;;
83558;SDS011;73527;47.882;7.718;2024-01-07T10:09:24;23.35;;;11.60;;
83558;SDS011;73527;47.882;7.718;2024-01-07T10:11:52;21.30;;;11.70;;
83558;SDS011;73527;47.882;7.718;2024-01-07T10:14:18;18.88;;;11.20;;
83558;SDS011;73527;47.882;7.718;2024-01-07T10:16:47;23.33;;;11.27;;
83558;SDS011;73527;47.882;7.718;2024-01-07T10:19:17;20.98;;;11.45;;
83558;SDS011;73527;47.882;7.718;2024-01-07T10:21:56;22.85;;;10.57;;
83558;SDS011;73527;47.882;7.718;2024-01-07T10:24:24;19.25;;;11.48;;
83558;SDS011;73527;47.882;7.718;2024-01-07T10:26:50;22.13;;;11.63;;
83558;SDS011;73527;47.882;7.718;2024-01-07T10:29:15;20.52;;;10.50;;
83558;SDS011;73527;47.882;7.718;2024-01-07T10:31:41;18.75;;;10.38;;
83558;SDS011;73527;47.882;7.718;2024-01-07T10:34:08;19.25;;;11.68;;
83558;SDS011;73527;47.882;7.718;2024-01-07T10:36:34;19.17;;;10.88;;
83558;SDS011;73527;47.882;7.718;2024-01-07T10:39:02;17.75;;;9.57;;
83558;SDS011;73527;47.882;7.718;2024-01-07T10:41:27;20.08;;;9.27;;
83558;SDS011;73527;47.882;7.718;2024-01-07T10:43:55;19.63;;;10.38;;
83558;SDS011;73527;47.882;7.718;2024-01-07T10:46:20;20.58;;;11.18;;
83558;SDS011;73527;47.882;7.718;2024-01-07T10:48:58;18.33;;;10.52;;
83558;SDS011;73527;47.882;7.718;2024-01-07T10:51:25;19.70;;;11.02;;
83558;SDS011;73527;47.882;7.718;2024-01-07T10:53:53;18.40;;;10.73;;
83558;SDS011;73527;47.882;7.718;2024-01-07T10:56:21;19.38;;;10.40;;
83558;SDS011;73527;47.882;7.718;2024-01-07T10:58:52;17.80;;;11.23;;
83558;SDS011;73527;47.882;7.718;2024-01-07T11:01:19;17.00;;;10.35;;
83558;SDS011;73527;47.882;7.718;2024-01-07T11:09:19;17.20;;;9.25;;
83558;SDS011;73527;47.882;7.718;2024-01-07T11:12:03;20.30;;;10.73;;
83558;SDS011;73527;47.882;7.718;2024-01-07T11:14:43;15.77;;;9.40;;
83558;SDS011;73527;47.882;7.718;2024-01-07T11:20:01;15.10;;;8.23;;
83558;SDS011;73527;47.882;7.718;2024-01-07T11:22:31;16.52;;;9.43;;
83558;SDS011;73527;47.882;7.718;2024-01-07T11:24:58;17.52;;;9.30;;
83558;SDS011;73527;47.882;7.718;2024-01-07T11:27:25;15.75;;;8.75;;
83558;SDS011;73527;47.882;7.718;2024-01-07T11:29:53;15.98;;;8.73;;
83558;SDS011;73527;47.882;7.718;2024-01-07T11:32:21;14.30;;;8.43;;
83558;SDS011;73527;47.882;7.718;2024-01-07T11:34:50;13.40;;;7.70;;
83558;SDS011;73527;47.882;7.718;2024-01-07T11:37:18;13.50;;;6.93;;
83558;SDS011;73527;47.882;7.718;2024-01-07T11:39:44;15.27;;;8.02;;
83558;SDS011;73527;47.882;7.718;2024-01-07T11:42:10;14.38;;;7.43;;
83558;SDS011;73527;47.882;7.718;2024-01-07T11:44:37;11.80;;;7.65;;
83558;SDS011;73527;47.882;7.718;2024-01-07T11:47:03;12.07;;;6.95;;
83558;SDS011;73527;47.882;7.718;2024-01-07T11:49:30;12.50;;;7.90;;
83558;SDS011;73527;47.882;7.718;2024-01-07T11:51:57;11.27;;;6.78;;
83558;SDS011;73527;47.882;7.718;2024-01-07T11:54:22;12.68;;;7.38;;
83558;SDS011;73527;47.882;7.718;2024-01-07T11:56:47;13.23;;;7.47;;
83558;SDS011;73527;47.882;7.718;2024-01-07T11:59:13;13.15;;;7.68;;
83558;SDS011;73527;47.882;7.718;2024-01-07T12:01:38;12.27;;;7.82;;
83558;SDS011;73527;47.882;7.718;2024-01-07T12:04:03;11.77;;;7.28;;
83558;SDS011;73527;47.882;7.718;2024-01-07T12:06:29;15.73;;;7.43;;
83558;SDS011;73527;47.882;7.718;2024-01-07T12:08:55;10.48;;;7.05;;
83558;SDS011;73527;47.882;7.718;2024-01-07T12:11:20;12.00;;;7.60;;
83558;SDS011;73527;47.882;7.718;2024-01-07T12:13:45;10.93;;;6.85;;
83558;SDS011;73527;47.882;7.718;2024-01-07T12:16:11;13.98;;;7.47;;
83558;SDS011;73527;47.882;7.718;2024-01-07T12:18:37;13.27;;;7.32;;
83558;SDS011;73527;47.882;7.718;2024-01-07T12:21:03;12.15;;;7.78;;
83558;SDS011;73527;47.882;7.718;2024-01-07T12:23:28;10.07;;;6.97;;
83558;SDS011;73527;47.882;7.718;2024-01-07T12:25:54;11.27;;;7.72;;
83558;SDS011;73527;47.882;7.718;2024-01-07T12:28:21;13.60;;;7.85;;
83558;SDS011;73527;47.882;7.718;2024-01-07T12:30:59;17.83;;;8.57;;
83558;SDS011;73527;47.882;7.718;2024-01-07T12:33:28;14.05;;;7.38;;
83558;SDS011;73527;47.882;7.718;2024-01-07T12:35:55;14.98;;;8.05;;
83558;SDS011;73527;47.882;7.718;2024-01-07T12:38:26;14.13;;;7.63;;
83558;SDS011;73527;47.882;7.718;2024-01-07T12:40:52;12.20;;;7.40;;
83558;SDS011;73527;47.882;7.718;2024-01-07T12:43:18;11.52;;;7.13;;
83558;SDS011;73527;47.882;7.718;2024-01-07T12:45:44;13.23;;;8.20;;
83558;SDS011;73527;47.882;7.718;2024-01-07T12:48:09;15.90;;;8.75;;
83558;SDS011;73527;47.882;7.718;2024-01-07T12:50:35;12.18;;;7.70;;
83558;SDS011;73527;47.882;7.718;2024-01-07T12:53:00;13.48;;;7.90;;
83558;SDS011;73527;47.882;7.718;2024-01-07T12:55:26;11.93;;;6.95;;
83558;SDS011;73527;47.882;7.718;2024-01-07T12:57:51;11.50;;;7.60;;
83558;SDS011;73527;47.882;7.718;2024-01-07T13:00:17;13.77;;;8.18;;
83558;SDS011;73527;47.882;7.718;2024-01-07T13:02:42;12.75;;;7.35;;
83558;SDS011;73527;47.882;7.718;2024-01-07T13:05:08;11.48;;;7.75;;
83558;SDS011;73527;47.882;7.718;2024-01-07T13:07:34;13.18;;;7.85;;
83558;SDS011;73527;47.882;7.718;2024-01-07T13:09:59;11.88;;;7.47;;
83558;SDS011;73527;47.882;7.718;2024-01-07T13:12:25;13.32;;;8.20;;
83558;SDS011;73527;47.882;7.718;2024-01-07T13:14:51;13.43;;;7.95;;
83558;SDS011;73527;47.882;7.718;2024-01-07T13:17:18;11.43;;;8.40;;
83558;SDS011;73527;47.882;7.718;2024-01-07T13:19:43;13.18;;;8.48;;
83558;SDS011;73527;47.882;7.718;2024-01-07T13:22:09;12.82;;;7.70;;
83558;SDS011;73527;47.882;7.718;2024-01-07T13:24:35;12.65;;;8.25;;
83558;SDS011;73527;47.882;7.718;2024-01-07T13:27:01;14.10;;;9.20;;
83558;SDS011;73527;47.882;7.718;2024-01-07T13:29:26;12.98;;;8.93;;
83558;SDS011;73527;47.882;7.718;2024-01-07T13:31:52;14.10;;;8.90;;
83558;SDS011;73527;47.882;7.718;2024-01-07T13:34:17;13.90;;;9.82;;
83558;SDS011;73527;47.882;7.718;2024-01-07T13:36:43;13.35;;;8.18;;
83558;SDS011;73527;47.882;7.718;2024-01-07T13:39:11;13.77;;;9.00;;
83558;SDS011;73527;47.882;7.718;2024-01-07T13:41:37;16.02;;;9.65;;
83558;SDS011;73527;47.882;7.718;2024-01-07T13:44:02;15.70;;;9.52;;
83558;SDS011;73527;47.882;7.718;2024-01-07T13:46:32;14.30;;;9.20;;
83558;SDS011;73527;47.882;7.718;2024-01-07T13:48:57;14.68;;;9.75;;
83558;SDS011;73527;47.882;7.718;2024-01-07T13:51:23;16.85;;;9.45;;
83558;SDS011;73527;47.882;7.718;2024-01-07T13:53:48;14.38;;;9.18;;
83558;SDS011;73527;47.882;7.718;2024-01-07T13:56:13;17.02;;;9.38;;
83558;SDS011;73527;47.882;7.718;2024-01-07T13:58:39;15.32;;;9.25;;
83558;SDS011;73527;47.882;7.718;2024-01-07T14:01:04;15.30;;;9.63;;
83558;SDS011;73527;47.882;7.718;2024-01-07T14:03:33;16.73;;;10.00;;
83558;SDS011;73527;47.882;7.718;2024-01-07T14:05:58;17.02;;;9.80;;
83558;SDS011;73527;47.882;7.718;2024-01-07T14:08:25;16.20;;;10.00;;
83558;SDS011;73527;47.882;7.718;2024-01-07T14:10:51;17.15;;;9.32;;
83558;SDS011;73527;47.882;7.718;2024-01-07T14:13:16;16.58;;;9.80;;
83558;SDS011;73527;47.882;7.718;2024-01-07T14:15:42;14.73;;;9.23;;
83558;SDS011;73527;47.882;7.718;2024-01-07T14:18:08;15.95;;;9.48;;
83558;SDS011;73527;47.882;7.718;2024-01-07T14:20:35;13.80;;;9.50;;
83558;SDS011;73527;47.882;7.718;2024-01-07T14:23:00;15.68;;;9.65;;
83558;SDS011;73527;47.882;7.718;2024-01-07T14:25:26;16.98;;;9.35;;
83558;SDS011;73527;47.882;7.718;2024-01-07T14:27:51;13.25;;;8.10;;
83558;SDS011;73527;47.882;7.718;2024-01-07T14:30:16;15.40;;;9.52;;
83558;SDS011;73527;47.882;7.718;2024-01-07T14:32:42;17.00;;;10.05;;
83558;SDS011;73527;47.882;7.718;2024-01-07T14:35:07;13.35;;;8.02;;
83558;SDS011;73527;47.882;7.718;2024-01-07T14:37:33;12.98;;;9.30;;
83558;SDS011;73527;47.882;7.718;2024-01-07T14:39:58;15.05;;;10.25;;
83558;SDS011;73527;47.882;7.718;2024-01-07T14:42:24;15.55;;;9.32;;